Time;durP1;ratioP1;P1;durP2;ratioP2;P2;SDS_P1;SDS_P2;PMS_P1;PMS_P2;Temp;Humidity;BMP_temperature;BMP_pressure;BME280_temperature;BME280_humidity;BME280_pressure;Samples;Min_cycle;Max_cycle;Signal;HPM_P1;HPM_P2
2023/09/19 00:01:08;;;;;;;2.08;1.17;;;17.30;80.10;;;16.14;100.00;95674.78;6121656;23;20444;-66
2023/09/19 00:03:38;;;;;;;2.67;1.10;;;17.20;80.10;;;16.13;100.00;95670.53;6117843;23;20022;-65
2023/09/19 00:06:04;;;;;;;1.27;1.00;;;17.30;79.70;;;16.13;100.00;95670.53;6094741;23;20033;-65
2023/09/19 00:08:33;;;;;;;4.55;1.23;;;17.20;79.60;;;16.12;100.00;95677.66;6094676;23;20729;-67
2023/09/19 00:11:03;;;;;;;4.43;1.20;;;17.30;79.50;;;16.14;100.00;95672.13;6118607;23;20076;-66
2023/09/19 00:13:30;;;;;;;2.42;1.02;;;17.30;79.20;;;16.16;100.00;95678.00;6118171;23;20029;-67
2023/09/19 00:15:58;;;;;;;2.83;1.10;;;17.30;79.10;;;16.17;100.00;95674.31;6119758;23;20057;-66
2023/09/19 00:18:28;;;;;;;2.20;1.20;;;17.40;78.90;;;16.20;100.00;95668.53;6095004;23;20018;-66
2023/09/19 00:20:59;;;;;;;2.50;1.10;;;17.40;78.90;;;16.22;100.00;95658.50;6095150;23;20025;-67
2023/09/19 00:23:25;;;;;;;2.13;0.95;;;17.50;78.60;;;16.23;100.00;95649.47;6071276;23;20085;-66
2023/09/19 00:25:51;;;;;;;1.10;0.80;;;17.50;78.50;;;16.27;100.00;95655.94;6120845;23;20921;-66
2023/09/19 00:28:18;;;;;;;3.72;1.05;;;17.60;78.40;;;16.28;100.00;95649.56;6119081;23;20348;-66
2023/09/19 00:30:44;;;;;;;3.28;1.20;;;17.60;78.50;;;16.30;100.00;95657.34;6071300;23;20072;-66
2023/09/19 00:33:11;;;;;;;2.97;1.20;;;17.60;78.70;;;16.31;100.00;95664.25;6094534;23;20330;-66
2023/09/19 00:35:37;;;;;;;4.65;2.47;;;17.60;78.70;;;16.31;100.00;95664.25;6094073;23;20025;-67
2023/09/19 00:38:03;;;;;;;6.00;3.25;;;17.60;78.80;;;16.30;100.00;95668.75;6094580;23;20033;-66
2023/09/19 00:40:30;;;;;;;3.72;2.30;;;17.60;78.70;;;16.27;100.00;95674.50;6120710;23;20010;-67
2023/09/19 00:42:59;;;;;;;2.08;1.70;;;17.50;78.60;;;16.25;100.00;95684.56;6071382;23;20017;-67
2023/09/19 00:45:25;;;;;;;2.47;1.45;;;17.40;78.90;;;16.25;100.00;95681.91;6118945;23;20360;-68
2023/09/19 00:47:51;;;;;;;2.80;1.60;;;17.40;78.90;;;16.23;100.00;95679.47;6118086;23;20017;-65
2023/09/19 00:50:25;;;;;;;3.28;1.27;;;17.50;78.90;;;16.25;100.00;95687.22;6119040;23;20018;-65
2023/09/19 00:52:55;;;;;;;2.70;1.20;;;17.50;78.70;;;16.23;100.00;95681.31;6094660;23;20021;-65
2023/09/19 00:55:21;;;;;;;2.05;1.17;;;17.50;78.80;;;16.24;100.00;95690.91;6118607;23;20017;-65
2023/09/19 00:57:49;;;;;;;1.95;0.85;;;17.50;78.60;;;16.25;100.00;95692.50;6118646;23;20010;-65
2023/09/19 01:00:15;;;;;;;1.92;1.10;;;17.50;78.80;;;16.26;100.00;95688.81;6118478;23;20057;-66
2023/09/19 01:02:45;;;;;;;2.42;1.00;;;17.60;78.50;;;16.27;100.00;95685.13;6115668;23;20045;-65
2023/09/19 01:05:12;;;;;;;1.48;0.90;;;17.50;78.40;;;16.26;100.00;95694.13;6142426;23;20018;-68
2023/09/19 01:07:40;;;;;;;2.80;1.10;;;17.50;78.50;;;16.27;100.00;95693.09;6070572;23;20150;-65
2023/09/19 01:10:11;;;;;;;3.00;1.20;;;17.50;78.60;;;16.28;100.00;95700.00;6069359;23;20010;-67
2023/09/19 01:13:21;;;;;;;3.78;1.20;;;17.50;78.20;;;16.28;100.00;95694.69;6094384;23;20336;-67
2023/09/19 01:16:49;;;;;;;3.22;1.30;;;17.50;78.30;;;16.29;100.00;95701.63;6101639;23;20025;-66
2023/09/19 01:19:39;;;;;;;2.28;1.13;;;17.60;78.10;;;16.30;100.00;95703.25;6120339;23;20065;-66
2023/09/19 01:22:18;;;;;;;1.30;1.00;;;17.50;77.40;;;16.29;100.00;95708.78;6118773;23;20006;-66
2023/09/19 01:25:11;;;;;;;3.10;1.42;;;17.50;77.30;;;16.31;100.00;95710.19;6094996;23;20022;-65
2023/09/19 01:27:52;;;;;;;2.13;1.40;;;17.60;77.00;;;16.34;100.00;95708.91;6119255;23;20017;-66
2023/09/19 01:30:22;;;;;;;2.58;1.17;;;17.60;76.90;;;16.35;100.00;95719.28;6118607;23;20022;-67
2023/09/19 01:32:52;;;;;;;3.13;1.25;;;17.60;76.70;;;16.36;100.00;95714.78;6070749;23;20467;-67
2023/09/19 01:35:18;;;;;;;2.55;1.20;;;17.60;76.40;;;16.37;100.00;95719.84;6095081;23;20022;-66
2023/09/19 01:37:44;;;;;;;3.92;1.30;;;17.60;76.70;;;16.38;100.00;95712.69;6118138;23;20360;-67
2023/09/19 01:40:19;;;;;;;3.13;1.20;;;17.60;76.40;;;16.41;100.00;95713.03;6119145;23;20017;-67
2023/09/19 01:43:12;;;;;;;3.35;1.10;;;17.60;76.30;;;16.44;100.00;95717.88;6072499;23;20022;-67
2023/09/19 01:46:04;;;;;;;4.35;1.42;;;17.60;76.30;;;16.46;100.00;95721.09;6118020;23;20017;-68
2023/09/19 01:49:01;;;;;;;3.92;1.65;;;17.70;76.20;;;16.49;100.00;95728.56;6118308;23;20025;-67
2023/09/19 01:51:46;;;;;;;1.90;1.00;;;17.70;76.70;;;16.48;100.00;95718.19;6118454;23;20022;-66
2023/09/19 01:54:12;;;;;;;3.90;1.35;;;17.70;77.10;;;16.46;100.00;95726.41;6096552;23;20018;-68
2023/09/19 01:57:09;;;;;;;2.22;1.20;;;17.70;77.50;;;16.49;100.00;95725.91;6069871;23;20037;-66
2023/09/19 01:59:45;;;;;;;3.08;1.48;;;17.60;77.70;;;16.49;100.00;95736.53;6094699;23;20026;-66
2023/09/19 02:02:11;;;;;;;3.15;1.42;;;17.70;77.80;;;16.51;100.00;95734.47;6094535;23;20045;-67
2023/09/19 02:04:37;;;;;;;2.50;1.13;;;17.70;77.80;;;16.52;100.00;95730.78;6117293;23;20459;-67
2023/09/19 02:07:05;;;;;;;2.15;1.30;;;17.70;77.70;;;16.53;100.00;95737.72;6094277;23;20017;-66
2023/09/19 02:09:31;;;;;;;2.42;0.98;;;17.70;77.80;;;16.53;100.00;95728.94;6116036;23;20018;-66
2023/09/19 02:11:57;;;;;;;3.05;1.30;;;17.70;77.80;;;16.52;100.00;95733.44;6117090;23;20088;-67
2023/09/19 02:14:22;;;;;;;4.90;1.63;;;17.70;77.80;;;16.56;100.00;95735.63;6118172;23;20137;-67
2023/09/19 02:16:49;;;;;;;1.83;1.25;;;17.70;77.90;;;16.56;100.00;95730.31;6069504;23;20464;-67
2023/09/19 02:19:15;;;;;;;3.28;1.52;;;17.70;77.90;;;16.56;100.00;95735.63;6118373;23;20006;-67
2023/09/19 02:21:41;;;;;;;2.40;1.20;;;17.70;78.10;;;16.57;100.00;95739.91;6120028;23;20041;-67
2023/09/19 02:24:08;;;;;;;2.55;0.98;;;17.80;77.90;;;16.52;100.00;95729.94;6117740;23;20026;-67
2023/09/19 02:26:36;;;;;;;2.40;1.35;;;17.60;78.10;;;16.49;100.00;95733.09;6093960;23;20025;-66
2023/09/19 02:29:04;;;;;;;2.28;1.15;;;17.60;78.20;;;16.48;100.00;95734.94;6117961;23;20442;-67
2023/09/19 02:31:30;;;;;;;3.58;1.35;;;17.60;78.20;;;16.47;100.00;95733.31;6094219;23;20017;-66
2023/09/19 02:33:56;;;;;;;2.33;1.40;;;17.60;78.10;;;16.47;100.00;95735.97;6117347;23;20017;-66
2023/09/19 02:36:23;;;;;;;4.38;1.50;;;17.60;78.10;;;16.47;100.00;95730.66;6117538;23;20021;-66
2023/09/19 02:38:49;;;;;;;3.33;1.50;;;17.60;78.00;;;16.47;100.00;95737.81;6116923;23;20018;-67
2023/09/19 02:41:15;;;;;;;2.92;0.90;;;17.60;77.60;;;16.45;100.00;95735.41;6092981;23;20014;-65
2023/09/19 02:43:42;;;;;;;2.88;1.05;;;17.60;77.50;;;16.44;100.00;95732.97;6116569;23;20021;-66
2023/09/19 02:46:08;;;;;;;3.30;1.40;;;17.60;77.80;;;16.43;100.00;95736.69;6094377;23;20574;-68
2023/09/19 02:48:35;;;;;;;3.30;1.30;;;17.60;77.60;;;16.41;100.00;95738.75;6118651;23;20025;-73
2023/09/19 02:51:02;;;;;;;2.65;1.10;;;17.60;77.60;;;16.39;100.00;95741.66;6116807;23;20018;-72
2023/09/19 02:53:30;;;;;;;2.30;1.45;;;17.60;77.60;;;16.38;100.00;95733.94;6116813;23;20022;-70
2023/09/19 02:55:56;;;;;;;2.17;1.23;;;17.60;77.60;;;16.36;100.00;95739.47;6116221;23;20034;-70
2023/09/19 02:58:23;;;;;;;3.88;1.40;;;17.50;77.80;;;16.36;100.00;95742.13;6117603;23;20032;-69
2023/09/19 03:00:49;;;;;;;4.05;1.35;;;17.60;77.70;;;16.34;100.00;95738.09;6118703;23;20515;-68
2023/09/19 03:03:16;;;;;;;2.72;1.17;;;17.50;77.60;;;16.32;100.00;95743.63;6116075;23;20077;-66
2023/09/19 03:05:46;;;;;;;2.60;1.20;;;17.50;77.70;;;16.31;100.00;95743.88;6092672;23;20064;-68
2023/09/19 03:08:14;;;;;;;2.70;1.08;;;17.50;77.80;;;16.32;100.00;95750.78;6093981;23;20021;-66
2023/09/19 03:10:40;;;;;;;1.98;1.27;;;17.60;77.80;;;16.29;100.00;95740.63;6114524;23;20054;-66
2023/09/19 03:13:09;;;;;;;2.63;1.13;;;17.50;77.60;;;16.27;100.00;95737.41;6092906;23;20064;-67
2023/09/19 03:15:43;;;;;;;1.95;1.20;;;17.40;77.70;;;16.26;100.00;95746.41;6141785;23;20093;-69
2023/09/19 03:18:12;;;;;;;7.07;5.30;;;17.40;77.70;;;16.23;100.00;95742.38;6140488;23;20022;-68
2023/09/19 03:20:38;;;;;;;5.32;3.45;;;17.40;77.90;;;16.22;100.00;95748.72;6070224;23;20029;-66
2023/09/19 03:23:06;;;;;;;2.55;1.40;;;17.40;77.80;;;16.21;100.00;95755.88;6091998;23;20022;-67
2023/09/19 03:25:34;;;;;;;2.45;1.40;;;17.40;77.70;;;16.21;100.00;95755.06;6093201;23;20044;-68
2023/09/19 03:28:00;;;;;;;4.07;1.42;;;17.40;77.80;;;16.21;100.00;95755.06;6117268;23;20033;-68
2023/09/19 03:30:26;;;;;;;4.53;2.10;;;17.40;77.70;;;16.20;100.00;95750.78;6092814;23;20014;-67
2023/09/19 03:32:52;;;;;;;2.33;1.58;;;17.40;77.40;;;16.20;100.00;95758.75;6117680;23;20054;-68
2023/09/19 03:35:18;;;;;;;6.32;2.20;;;17.40;77.70;;;16.19;100.00;95762.44;6118590;23;20042;-69
2023/09/19 03:37:44;;;;;;;2.90;1.30;;;17.30;77.60;;;16.15;100.00;95762.13;6093047;23;20022;-68
2023/09/19 03:40:10;;;;;;;3.80;2.10;;;17.30;77.70;;;16.14;100.00;95759.69;6117983;23;20010;-66
2023/09/19 03:42:40;;;;;;;5.03;2.13;;;17.20;77.60;;;16.13;100.00;95761.53;6068794;23;20053;-69
2023/09/19 03:45:09;;;;;;;5.53;3.47;;;17.30;78.00;;;16.13;100.00;95750.13;6092770;23;20431;-69
2023/09/19 03:47:36;;;;;;;5.30;2.08;;;17.40;77.80;;;16.12;100.00;95756.47;6117465;23;20014;-68
2023/09/19 03:50:02;;;;;;;6.53;3.40;;;17.30;77.70;;;16.07;100.00;95758.97;6118337;23;20014;-69
2023/09/19 03:52:28;;;;;;;6.93;5.13;;;17.20;77.80;;;16.09;100.00;95767.53;6117089;23;20013;-70
2023/09/19 03:54:54;;;;;;;3.53;2.00;;;17.20;77.70;;;16.08;100.00;95766.75;6091850;23;20006;-69
2023/09/19 03:57:20;;;;;;;9.45;6.78;;;17.20;77.60;;;16.10;100.00;95758.53;6119188;23;20066;-68
2023/09/19 03:59:47;;;;;;;9.30;6.53;;;17.30;77.50;;;16.08;100.00;95771.25;6121469;23;20038;-69
2023/09/19 04:02:22;;;;;;;5.30;2.28;;;17.30;77.50;;;16.07;100.00;95781.03;6094978;23;20076;-71
2023/09/19 04:04:48;;;;;;;3.30;2.00;;;17.30;77.70;;;16.08;100.00;95774.69;6119242;23;20025;-69
2023/09/19 04:07:14;;;;;;;5.82;4.35;;;17.30;77.50;;;16.08;100.00;95771.25;6095545;23;20009;-68
2023/09/19 04:09:40;;;;;;;4.95;3.45;;;17.30;77.30;;;16.10;100.00;95774.47;6121130;23;20459;-69
2023/09/19 04:12:08;;;;;;;3.67;2.38;;;17.30;77.10;;;16.11;100.00;95776.06;6119695;23;20018;-71
2023/09/19 04:14:34;;;;;;;3.92;2.45;;;17.30;77.10;;;16.12;100.00;95777.69;6096473;23;20065;-69
2023/09/19 04:17:00;;;;;;;3.45;2.67;;;17.30;77.20;;;16.13;100.00;95774.81;6119904;23;20018;-70
2023/09/19 04:19:26;;;;;;;2.25;1.73;;;17.40;77.00;;;16.15;100.00;95774.56;6096102;23;20057;-68
2023/09/19 04:21:52;;;;;;;2.60;1.50;;;17.30;77.00;;;16.15;100.00;95782.53;6096206;23;20585;-70
2023/09/19 04:24:19;;;;;;;2.78;1.80;;;17.40;77.00;;;16.16;100.00;95786.81;6121626;23;20021;-69
2023/09/19 04:26:45;;;;;;;3.03;1.60;;;17.40;77.20;;;16.14;100.00;95787.03;6123818;23;20018;-72
2023/09/19 04:29:13;;;;;;;1.98;1.10;;;17.30;77.20;;;16.14;100.00;95794.19;6121861;23;20080;-71
2023/09/19 04:31:40;;;;;;;3.60;2.10;;;17.30;77.20;;;16.14;100.00;95795.00;6098048;23;20641;-69
2023/09/19 04:34:10;;;;;;;4.70;1.85;;;17.40;77.40;;;16.17;100.00;95799.03;6098032;23;20013;-72
2023/09/19 04:36:39;;;;;;;3.00;1.77;;;17.40;77.40;;;16.18;100.00;95795.34;6098645;23;20017;-68
2023/09/19 04:39:05;;;;;;;2.05;1.20;;;17.50;77.30;;;16.19;100.00;95800.41;6122563;23;20018;-67
2023/09/19 04:41:31;;;;;;;3.53;1.40;;;17.50;77.20;;;16.22;100.00;95801.78;6097749;23;20025;-72
2023/09/19 04:43:57;;;;;;;2.10;1.23;;;17.60;77.20;;;16.26;100.00;95800.28;6097314;23;20017;-70
2023/09/19 04:46:22;;;;;;;1.85;1.27;;;17.60;77.00;;;16.27;100.00;95807.22;6121938;23;20006;-70
2023/09/19 04:48:48;;;;;;;5.85;1.63;;;17.60;76.80;;;16.28;100.00;95814.13;6098330;23;20002;-70
2023/09/19 04:51:15;;;;;;;4.55;1.30;;;17.60;76.60;;;16.30;100.00;95812.06;6073008;23;20014;-69
2023/09/19 04:53:41;;;;;;;2.88;1.33;;;17.60;76.70;;;16.30;100.00;95813.91;6121501;23;20018;-69
2023/09/19 04:56:07;;;;;;;3.65;1.60;;;17.60;76.80;;;16.31;100.00;95826.97;6097229;23;20014;-69
2023/09/19 04:58:33;;;;;;;2.17;1.33;;;17.60;76.60;;;16.31;100.00;95824.31;6097754;23;20077;-69
2023/09/19 05:00:59;;;;;;;2.88;1.40;;;17.60;76.60;;;16.31;100.00;95823.50;6122273;23;20009;-71
2023/09/19 05:03:25;;;;;;;4.85;1.40;;;17.60;76.60;;;16.31;100.00;95821.66;6120944;23;20022;-71
2023/09/19 05:05:51;;;;;;;3.08;1.30;;;17.60;76.60;;;16.31;100.00;95826.16;6097291;23;20456;-69
2023/09/19 05:08:16;;;;;;;2.42;1.50;;;17.60;76.80;;;16.32;100.00;95836.53;6121628;23;20018;-71
2023/09/19 05:10:42;;;;;;;3.63;2.60;;;17.60;77.10;;;16.31;100.00;95840.22;6123319;23;20018;-69
2023/09/19 05:13:08;;;;;;;4.60;2.28;;;17.60;77.20;;;16.30;100.00;95841.28;6123180;23;20005;-70
2023/09/19 05:15:35;;;;;;;4.47;2.05;;;17.50;77.30;;;16.31;100.00;95837.59;6097351;23;20038;-70
2023/09/19 05:18:01;;;;;;;5.97;1.77;;;17.60;77.30;;;16.31;100.00;95842.06;6097439;23;20033;-71
2023/09/19 05:20:32;;;;;;;3.50;1.50;;;17.60;77.40;;;16.29;100.00;95847.59;6121669;23;20062;-72
2023/09/19 05:23:02;;;;;;;2.80;1.30;;;17.60;78.00;;;16.27;100.00;95841.72;6120968;23;20021;-68
2023/09/19 05:25:31;;;;;;;2.95;1.35;;;17.60;78.20;;;16.27;100.00;95849.66;6098021;23;20013;-70
2023/09/19 05:27:58;;;;;;;1.98;1.13;;;17.50;78.40;;;16.28;100.00;95853.94;6074310;23;20010;-73
2023/09/19 05:30:27;;;;;;;3.08;1.40;;;17.60;78.20;;;16.28;100.00;95859.25;6097186;23;20021;-72
2023/09/19 05:32:54;;;;;;;3.70;1.40;;;17.60;78.10;;;16.28;100.00;95864.56;6073579;23;20054;-72
2023/09/19 05:35:21;;;;;;;3.00;1.40;;;17.60;78.10;;;16.29;100.00;95862.72;6097383;23;20045;-69
2023/09/19 05:37:50;;;;;;;1.80;1.20;;;17.60;78.10;;;16.29;100.00;95863.50;6121556;23;20041;-71
2023/09/19 05:40:19;;;;;;;2.75;1.27;;;17.60;78.30;;;16.31;100.00;95865.97;6074524;23;20016;-72
2023/09/19 05:42:45;;;;;;;3.00;1.17;;;17.60;78.30;;;16.32;100.00;95862.28;6074004;23;20033;-72
2023/09/19 05:45:12;;;;;;;2.65;1.38;;;17.60;77.80;;;16.35;100.00;95861.81;6096946;23;20041;-71
2023/09/19 05:47:45;;;;;;;2.55;1.27;;;17.70;78.10;;;16.35;100.00;95867.94;6073385;23;20070;-68
2023/09/19 05:50:11;;;;;;;2.80;1.20;;;17.60;77.80;;;16.35;100.00;95867.94;6122065;23;20021;-71
2023/09/19 05:52:37;;;;;;;2.72;1.30;;;17.70;77.70;;;16.39;100.00;95874.38;6096472;23;20007;-71
2023/09/19 05:55:07;;;;;;;4.15;1.65;;;17.80;77.70;;;16.43;100.00;95875.53;6097679;23;20018;-69
2023/09/19 05:57:34;;;;;;;3.60;1.93;;;17.90;77.40;;;16.48;100.00;95870.34;6097105;23;20190;-72
2023/09/19 05:59:59;;;;;;;4.25;2.10;;;17.90;77.00;;;16.50;100.00;95876.22;6122729;23;20246;-71
2023/09/19 06:02:28;;;;;;;3.97;1.55;;;17.90;76.90;;;16.55;100.00;95872.91;6072457;23;20122;-71
2023/09/19 06:04:55;;;;;;;2.85;1.70;;;17.90;76.90;;;16.59;100.00;95865.25;6120889;23;20018;-72
2023/09/19 06:07:27;;;;;;;3.03;1.63;;;18.00;76.80;;;16.62;100.00;95878.88;6096510;23;20013;-70
2023/09/19 06:09:53;;;;;;;2.20;1.35;;;18.00;76.70;;;16.63;100.00;95874.38;6122046;23;20061;-74
2023/09/19 06:12:19;;;;;;;3.40;1.27;;;18.00;76.20;;;16.64;100.00;95881.31;6096128;23;20017;-71
2023/09/19 06:14:46;;;;;;;4.18;1.50;;;18.00;76.30;;;16.68;100.00;95879.81;6121238;23;20022;-72
2023/09/19 06:17:11;;;;;;;2.20;1.10;;;18.00;76.10;;;16.71;100.00;95876.69;6121273;23;20014;-72
2023/09/19 06:19:37;;;;;;;3.15;1.30;;;18.10;75.90;;;16.75;100.00;95888.50;6096977;23;20511;-72
2023/09/19 06:22:03;;;;;;;1.75;1.10;;;18.20;75.60;;;16.79;100.00;95884.34;6096709;23;20013;-70
2023/09/19 06:24:29;;;;;;;1.95;0.95;;;18.20;75.20;;;16.84;100.00;95887.09;6120811;23;20022;-70
2023/09/19 06:26:55;;;;;;;2.05;1.13;;;18.30;74.90;;;16.88;100.00;95885.59;6096491;23;20010;-68
2023/09/19 06:29:23;;;;;;;3.28;1.30;;;18.30;74.80;;;16.92;100.00;95881.41;6120825;23;20029;-72
2023/09/19 06:31:48;;;;;;;1.63;0.93;;;18.40;74.40;;;16.98;100.00;95879.69;6096022;23;20038;-68
2023/09/19 06:34:18;;;;;;;3.92;1.13;;;18.50;74.30;;;17.04;100.00;95882.22;6071890;23;20014;-70
2023/09/19 06:36:44;;;;;;;2.33;1.00;;;18.60;73.70;;;17.11;100.00;95885.53;6098085;23;20002;-72
2023/09/19 06:39:10;;;;;;;2.28;1.33;;;18.70;73.40;;;17.17;100.00;95896.25;6122373;23;20006;-68
2023/09/19 06:41:39;;;;;;;1.73;1.00;;;18.70;73.10;;;17.19;100.00;95894.97;6096478;23;20077;-72
2023/09/19 06:44:05;;;;;;;3.22;1.13;;;18.70;72.80;;;17.22;100.00;95899.03;6120606;23;20101;-70
2023/09/19 06:46:34;;;;;;;2.97;1.20;;;18.70;73.00;;;17.21;100.00;95892.13;6120773;23;20014;-69
2023/09/19 06:49:03;;;;;;;1.55;0.82;;;18.60;72.50;;;17.22;100.00;95899.03;6075023;23;20089;-73
2023/09/19 06:51:29;;;;;;;2.80;0.95;;;18.70;72.90;;;17.20;100.00;95899.28;6122270;23;20367;-71
2023/09/19 06:53:56;;;;;;;1.60;0.80;;;18.70;72.20;;;17.26;100.00;95905.50;6072456;23;20010;-73
2023/09/19 06:56:24;;;;;;;1.95;1.00;;;18.90;72.30;;;17.33;100.00;95911.47;6120447;23;20013;-71
2023/09/19 06:58:50;;;;;;;3.08;1.00;;;19.10;71.70;;;17.44;100.00;95908.00;6120778;23;20013;-69
2023/09/19 07:01:18;;;;;;;3.40;1.05;;;19.30;70.70;;;17.59;100.00;95910.94;6096278;23;20507;-70
2023/09/19 07:03:45;;;;;;;1.83;0.85;;;19.70;69.40;;;17.81;100.00;95907.63;6096965;23;20014;-69
2023/09/19 07:06:11;;;;;;;2.42;0.95;;;20.30;68.90;;;18.06;100.00;95913.41;6096768;23;20456;-72
2023/09/19 07:08:38;;;;;;;1.77;1.10;;;20.40;68.30;;;18.24;100.00;95910.50;6120658;23;20068;-68
2023/09/19 07:11:06;;;;;;;1.88;0.90;;;20.50;67.80;;;18.33;100.00;95911.75;6096764;23;20014;-66
2023/09/19 07:13:32;;;;;;;2.17;1.00;;;20.30;67.80;;;18.40;100.00;95922.22;6096374;23;20029;-72
2023/09/19 07:15:59;;;;;;;2.20;1.20;;;20.10;68.20;;;18.45;100.00;95916.16;6073424;23;20089;-69
2023/09/19 07:18:25;;;;;;;3.05;1.25;;;20.10;68.40;;;18.47;100.00;95928.19;6096227;23;20616;-68
2023/09/19 07:20:50;;;;;;;2.58;0.80;;;20.00;68.80;;;18.47;99.62;95922.84;6120474;23;20061;-68
2023/09/19 07:23:20;;;;;;;2.17;0.98;;;20.00;68.70;;;18.47;97.56;95927.38;6121579;23;20021;-70
2023/09/19 07:25:46;;;;;;;1.95;0.80;;;19.90;68.40;;;18.45;98.56;95921.50;6096562;23;20006;-69
2023/09/19 07:28:12;;;;;;;2.42;0.90;;;19.90;68.40;;;18.49;96.99;95919.94;6121263;23;20010;-67
2023/09/19 07:30:38;;;;;;;2.05;0.95;;;20.00;68.20;;;18.48;96.17;95923.66;6072381;23;20018;-67
2023/09/19 07:33:05;;;;;;;1.75;0.88;;;20.00;67.90;;;18.50;96.93;95926.88;6121800;23;20036;-67
2023/09/19 07:35:34;;;;;;;2.42;1.00;;;20.10;68.20;;;18.55;96.06;95926.97;6120316;23;20025;-70
2023/09/19 07:38:01;;;;;;;2.42;0.82;;;20.40;67.70;;;18.68;97.40;95932.00;6097119;23;20041;-70
2023/09/19 07:40:28;;;;;;;1.50;0.82;;;20.80;66.30;;;18.84;96.30;95935.72;6120306;23;20014;-72
2023/09/19 07:42:55;;;;;;;2.70;1.00;;;21.30;65.10;;;19.02;95.79;95929.31;6097084;23;20056;-72
2023/09/19 07:45:21;;;;;;;2.08;0.98;;;21.30;64.50;;;19.22;94.77;95934.88;6095956;23;20515;-69
2023/09/19 07:47:47;;;;;;;1.77;0.73;;;21.70;63.50;;;19.37;93.62;95927.09;6072231;23;20018;-71
2023/09/19 07:50:16;;;;;;;1.85;0.90;;;21.80;62.80;;;19.50;92.50;95926.72;6072042;23;20014;-70
2023/09/19 07:52:42;;;;;;;2.05;1.10;;;21.70;63.10;;;19.65;92.98;95930.63;6121745;23;20360;-72
2023/09/19 07:55:08;;;;;;;2.78;0.82;;;21.80;63.50;;;19.78;92.49;95939.06;6097132;23;20006;-72
2023/09/19 07:57:35;;;;;;;3.90;1.20;;;22.10;62.40;;;19.88;90.71;95935.69;6096401;23;20464;-67
2023/09/19 08:00:04;;;;;;;2.35;0.88;;;22.10;62.30;;;19.97;89.61;95942.19;6122602;23;20010;-71
2023/09/19 08:02:34;;;;;;;1.08;0.80;;;22.30;61.40;;;20.12;87.68;95928.97;6121760;23;20069;-68
2023/09/19 08:05:00;;;;;;;1.45;0.63;;;22.60;60.30;;;20.18;88.40;95930.66;6123663;23;20013;-70
2023/09/19 08:07:26;;;;;;;1.75;0.60;;;22.20;61.60;;;20.24;87.54;95936.84;6122317;23;20395;-72
2023/09/19 08:09:52;;;;;;;1.50;0.80;;;22.30;61.90;;;20.27;87.73;95941.69;6122899;23;19998;-68
2023/09/19 08:12:24;;;;;;;1.45;0.80;;;22.20;62.00;;;20.36;86.75;95942.00;6097460;23;20032;-69
2023/09/19 08:14:50;;;;;;;1.42;0.75;;;22.70;60.90;;;20.57;87.24;95946.50;6123693;23;20052;-70
2023/09/19 08:17:16;;;;;;;3.53;0.88;;;24.00;58.00;;;20.97;86.47;95945.19;6073637;23;20018;-67
2023/09/19 08:19:44;;;;;;;3.15;0.80;;;25.10;55.20;;;21.29;85.71;95948.63;6122155;23;20036;-70
2023/09/19 08:22:10;;;;;;;2.13;0.85;;;25.40;54.00;;;21.58;83.84;95940.16;6098698;23;20029;-67
2023/09/19 08:24:36;;;;;;;2.05;0.80;;;25.40;53.40;;;21.81;83.43;95945.06;6121992;23;20025;-71
2023/09/19 08:27:04;;;;;;;1.30;0.60;;;25.30;54.80;;;22.05;80.61;95936.59;6122293;23;20022;-69
2023/09/19 08:29:30;;;;;;;2.58;0.63;;;26.00;51.70;;;22.32;79.26;95939.81;6074218;23;20467;-71
2023/09/19 08:31:59;;;;;;;1.05;0.70;;;26.10;51.20;;;22.59;75.69;95913.56;6097526;23;20018;-69
2023/09/19 08:34:25;;;;;;;4.93;0.82;;;26.90;48.90;;;22.78;76.66;95927.22;6121522;23;20013;-70
2023/09/19 08:36:52;;;;;;;2.75;1.05;;;26.90;49.10;;;22.95;74.75;95926.16;6098721;23;20436;-72
2023/09/19 08:39:19;;;;;;;1.00;0.70;;;26.80;48.30;;;23.07;73.49;95930.16;6122041;23;20014;-72
2023/09/19 08:41:44;;;;;;;1.23;0.70;;;26.70;48.40;;;23.13;72.76;95920.22;6121930;23;20025;-73
2023/09/19 08:44:10;;;;;;;1.17;0.68;;;26.70;48.60;;;23.32;73.24;95923.13;6097543;23;20363;-68
2023/09/19 08:46:38;;;;;;;3.40;0.98;;;27.30;48.80;;;23.57;71.30;95925.75;6121689;23;20014;-72
2023/09/19 08:49:05;;;;;;;2.92;1.67;;;27.60;46.60;;;23.89;70.84;95919.13;6075302;23;20014;-69
2023/09/19 08:51:41;;;;;;;2.72;1.17;;;28.30;45.50;;;24.16;65.07;95881.88;6121533;23;20025;-69
2023/09/19 08:54:07;;;;;;;2.55;0.75;;;28.50;45.30;;;24.36;68.06;95914.00;6098614;23;20142;-68
2023/09/19 08:56:33;;;;;;;2.85;0.70;;;28.20;44.70;;;24.41;66.70;95908.56;6073427;23;20042;-67
2023/09/19 08:59:09;;;;;;;2.45;0.68;;;27.80;45.40;;;24.42;62.78;95895.94;6073422;23;20460;-70
2023/09/19 09:01:35;;;;;;;2.88;0.88;;;27.00;46.40;;;24.38;65.25;95906.47;6121306;23;20006;-67
2023/09/19 09:04:02;;;;;;;2.70;1.30;;;27.30;46.60;;;24.57;65.54;95921.91;6073538;23;20400;-68
2023/09/19 09:06:28;;;;;;;1.92;1.00;;;27.50;46.70;;;24.68;64.30;95920.75;6073451;23;20021;-70
2023/09/19 09:08:54;;;;;;;2.17;0.88;;;27.60;46.30;;;24.77;63.51;95908.28;6097109;23;20018;-69
2023/09/19 09:11:20;;;;;;;1.55;0.70;;;27.60;46.20;;;24.96;63.05;95914.56;6073134;23;20583;-73
2023/09/19 09:13:46;;;;;;;1.27;0.50;;;28.00;45.40;;;25.24;63.19;95912.94;6073100;23;20010;-67
2023/09/19 09:16:13;;;;;;;2.42;1.20;;;28.60;44.90;;;25.60;62.49;95905.25;6074175;23;20061;-67
2023/09/19 09:18:39;;;;;;;3.38;1.70;;;28.80;44.80;;;25.72;61.81;95902.16;6073569;23;20088;-70
2023/09/19 09:21:05;;;;;;;1.52;0.82;;;28.90;44.00;;;25.90;59.99;95890.59;6073387;23;20010;-68
2023/09/19 09:23:32;;;;;;;1.48;0.70;;;28.60;42.50;;;25.96;59.27;95891.31;6096810;23;20041;-70
2023/09/19 09:26:02;;;;;;;2.05;0.80;;;28.60;43.60;;;25.88;59.19;95891.97;6122892;23;20021;-68
2023/09/19 09:28:30;;;;;;;1.33;0.77;;;28.00;44.80;;;25.94;57.61;95888.13;6122794;23;20036;-69
2023/09/19 09:30:58;;;;;;;1.00;0.65;;;28.40;43.60;;;25.95;57.25;95887.81;6122086;23;20005;-68
2023/09/19 09:33:23;;;;;;;1.92;0.60;;;28.10;43.30;;;25.93;57.56;95886.50;6096276;23;20107;-71
2023/09/19 09:36:06;;;;;;;1.20;0.60;;;28.10;43.60;;;25.76;54.28;95870.03;6096950;23;20460;-70
2023/09/19 09:38:46;;;;;;;2.40;0.70;;;27.50;44.50;;;25.70;55.01;95868.50;6098492;23;20624;-69
2023/09/19 09:41:15;;;;;;;2.20;1.27;;;27.70;45.00;;;25.62;56.53;95876.13;6073666;23;20456;-71
2023/09/19 09:43:46;;;;;;;1.80;0.90;;;27.50;44.10;;;25.60;56.33;95881.00;6120983;23;20018;-72
2023/09/19 09:47:27;;;;;;;1.15;0.60;;;27.70;44.40;;;25.39;54.44;95860.81;6099778;23;20002;-69
2023/09/19 09:51:59;;;;;;;2.05;0.75;;;27.10;45.40;;;25.21;56.84;95885.78;6123381;23;20094;-73
2023/09/19 09:54:39;;;;;;;1.35;0.70;;;27.10;45.70;;;24.94;56.43;95876.38;6121308;23;20113;-70
2023/09/19 09:57:30;;;;;;;1.73;0.70;;;26.50;46.40;;;24.56;56.63;95891.53;6100285;23;20014;-72
2023/09/19 09:59:55;;;;;;;2.80;0.70;;;25.70;47.70;;;24.26;57.98;95903.31;6081666;23;20014;-69
2023/09/19 10:02:29;;;;;;;2.63;0.80;;;25.80;48.20;;;24.32;58.00;95902.22;6073007;23;20018;-72
2023/09/19 10:04:59;;;;;;;3.08;0.80;;;26.40;47.90;;;24.32;59.06;95907.59;6096781;23;20014;-72
2023/09/19 10:07:50;;;;;;;1.20;0.73;;;26.20;47.90;;;24.25;57.44;95896.31;6121400;23;20002;-72
2023/09/19 10:11:06;;;;;;;2.78;0.95;;;25.80;47.90;;;24.10;58.08;95901.81;6081035;23;20009;-72
2023/09/19 10:13:26;;;;;;;0.90;0.70;;;25.50;49.20;;;23.89;59.18;95908.38;6102440;23;20009;-70
2023/09/19 10:15:54;;;;;;;1.73;0.80;;;25.30;49.60;;;23.77;59.22;95906.84;6098036;23;20013;-70
2023/09/19 10:18:22;;;;;;;1.80;0.65;;;25.30;49.60;;;23.73;59.04;95903.09;6120752;23;20014;-69
2023/09/19 10:20:50;;;;;;;2.92;0.60;;;25.70;48.10;;;23.90;58.99;95902.72;6072601;23;20010;-69
2023/09/19 10:23:22;;;;;;;1.52;0.50;;;26.70;46.60;;;24.73;58.56;95899.19;6120842;23;20010;-71
2023/09/19 10:25:48;;;;;;;1.75;0.57;;;29.00;42.70;;;25.39;58.04;95903.09;6074894;23;20017;-72